sensor_id;sensor_type;location;lat;lon;timestamp;P1;durP1;ratioP1;P2;durP2;ratioP2
72439;SDS011;60446;50.752;4.352;2023-03-14T00:01:08;4.50;;;0.60;;
72439;SDS011;60446;50.752;4.352;2023-03-14T00:03:36;7.00;;;0.70;;
72439;SDS011;60446;50.752;4.352;2023-03-14T00:06:04;3.67;;;0.73;;
72439;SDS011;60446;50.752;4.352;2023-03-14T00:08:32;6.40;;;0.65;;
72439;SDS011;60446;50.752;4.352;2023-03-14T00:11:06;5.43;;;0.40;;
72439;SDS011;60446;50.752;4.352;2023-03-14T00:13:38;2.75;;;0.38;;
72439;SDS011;60446;50.752;4.352;2023-03-14T00:16:07;6.90;;;0.40;;
72439;SDS011;60446;50.752;4.352;2023-03-14T00:18:38;3.92;;;0.52;;
72439;SDS011;60446;50.752;4.352;2023-03-14T00:21:06;4.65;;;0.80;;
72439;SDS011;60446;50.752;4.352;2023-03-14T00:23:35;5.13;;;0.85;;
72439;SDS011;60446;50.752;4.352;2023-03-14T00:26:05;5.75;;;0.40;;
72439;SDS011;60446;50.752;4.352;2023-03-14T00:28:35;7.77;;;0.60;;
72439;SDS011;60446;50.752;4.352;2023-03-14T00:31:03;5.68;;;0.90;;
72439;SDS011;60446;50.752;4.352;2023-03-14T00:33:32;3.85;;;0.82;;
72439;SDS011;60446;50.752;4.352;2023-03-14T00:36:06;6.88;;;0.80;;
72439;SDS011;60446;50.752;4.352;2023-03-14T00:38:37;6.85;;;0.90;;
72439;SDS011;60446;50.752;4.352;2023-03-14T00:41:09;5.17;;;0.80;;
72439;SDS011;60446;50.752;4.352;2023-03-14T00:43:40;9.32;;;0.85;;
72439;SDS011;60446;50.752;4.352;2023-03-14T00:46:08;7.90;;;0.60;;
72439;SDS011;60446;50.752;4.352;2023-03-14T00:48:35;8.43;;;1.25;;
72439;SDS011;60446;50.752;4.352;2023-03-14T00:51:03;4.88;;;0.73;;
72439;SDS011;60446;50.752;4.352;2023-03-14T00:53:32;4.07;;;0.67;;
72439;SDS011;60446;50.752;4.352;2023-03-14T00:56:04;5.32;;;0.60;;
72439;SDS011;60446;50.752;4.352;2023-03-14T00:58:34;5.50;;;1.08;;
72439;SDS011;60446;50.752;4.352;2023-03-14T01:01:05;6.40;;;0.60;;
72439;SDS011;60446;50.752;4.352;2023-03-14T01:03:39;7.45;;;0.88;;
72439;SDS011;60446;50.752;4.352;2023-03-14T01:06:14;13.57;;;1.43;;
72439;SDS011;60446;50.752;4.352;2023-03-14T01:08:44;5.75;;;0.63;;
72439;SDS011;60446;50.752;4.352;2023-03-14T01:11:13;11.00;;;1.00;;
72439;SDS011;60446;50.752;4.352;2023-03-14T01:13:46;9.98;;;0.70;;
72439;SDS011;60446;50.752;4.352;2023-03-14T01:16:13;6.40;;;1.00;;
72439;SDS011;60446;50.752;4.352;2023-03-14T01:18:42;4.70;;;0.70;;
72439;SDS011;60446;50.752;4.352;2023-03-14T01:21:15;7.40;;;1.08;;
72439;SDS011;60446;50.752;4.352;2023-03-14T01:23:51;7.43;;;0.65;;
72439;SDS011;60446;50.752;4.352;2023-03-14T01:26:21;8.90;;;0.60;;
72439;SDS011;60446;50.752;4.352;2023-03-14T01:28:52;7.95;;;0.90;;
72439;SDS011;60446;50.752;4.352;2023-03-14T01:31:21;4.27;;;0.70;;
72439;SDS011;60446;50.752;4.352;2023-03-14T01:33:49;5.43;;;0.70;;
72439;SDS011;60446;50.752;4.352;2023-03-14T01:36:17;4.85;;;0.57;;
72439;SDS011;60446;50.752;4.352;2023-03-14T01:38:45;4.03;;;0.57;;
72439;SDS011;60446;50.752;4.352;2023-03-14T01:41:19;5.93;;;1.00;;
72439;SDS011;60446;50.752;4.352;2023-03-14T01:43:50;4.37;;;0.60;;
72439;SDS011;60446;50.752;4.352;2023-03-14T01:46:28;5.00;;;0.80;;
72439;SDS011;60446;50.752;4.352;2023-03-14T01:49:21;5.80;;;0.73;;
72439;SDS011;60446;50.752;4.352;2023-03-14T01:52:08;7.45;;;0.52;;
72439;SDS011;60446;50.752;4.352;2023-03-14T01:54:46;3.65;;;0.43;;
72439;SDS011;60446;50.752;4.352;2023-03-14T02:00:01;3.75;;;0.40;;
72439;SDS011;60446;50.752;4.352;2023-03-14T02:03:08;5.07;;;0.50;;
72439;SDS011;60446;50.752;4.352;2023-03-14T02:05:35;4.45;;;0.30;;
72439;SDS011;60446;50.752;4.352;2023-03-14T02:08:17;4.13;;;0.70;;
72439;SDS011;60446;50.752;4.352;2023-03-14T02:10:52;2.97;;;0.40;;
72439;SDS011;60446;50.752;4.352;2023-03-14T02:13:25;4.88;;;0.40;;
72439;SDS011;60446;50.752;4.352;2023-03-14T02:16:11;1.95;;;0.40;;
72439;SDS011;60446;50.752;4.352;2023-03-14T02:19:01;2.45;;;0.50;;
72439;SDS011;60446;50.752;4.352;2023-03-14T02:22:28;3.33;;;0.73;;
72439;SDS011;60446;50.752;4.352;2023-03-14T02:27:35;3.83;;;0.52;;
72439;SDS011;60446;50.752;4.352;2023-03-14T02:30:22;4.43;;;0.95;;
72439;SDS011;60446;50.752;4.352;2023-03-14T02:33:06;4.60;;;0.85;;
72439;SDS011;60446;50.752;4.352;2023-03-14T02:38:18;8.67;;;1.10;;
72439;SDS011;60446;50.752;4.352;2023-03-14T02:40:55;5.60;;;1.13;;
72439;SDS011;60446;50.752;4.352;2023-03-14T02:43:23;9.43;;;1.58;;
72439;SDS011;60446;50.752;4.352;2023-03-14T02:45:56;5.82;;;0.85;;
72439;SDS011;60446;50.752;4.352;2023-03-14T02:48:25;7.47;;;1.13;;
72439;SDS011;60446;50.752;4.352;2023-03-14T02:50:57;8.37;;;1.10;;
72439;SDS011;60446;50.752;4.352;2023-03-14T02:53:31;8.52;;;1.20;;
72439;SDS011;60446;50.752;4.352;2023-03-14T02:56:05;11.25;;;1.20;;
72439;SDS011;60446;50.752;4.352;2023-03-14T02:58:35;8.00;;;1.27;;
72439;SDS011;60446;50.752;4.352;2023-03-14T03:01:12;6.78;;;1.00;;
72439;SDS011;60446;50.752;4.352;2023-03-14T03:03:39;11.20;;;1.00;;
72439;SDS011;60446;50.752;4.352;2023-03-14T03:06:07;6.75;;;0.80;;
72439;SDS011;60446;50.752;4.352;2023-03-14T03:08:34;6.30;;;1.40;;
72439;SDS011;60446;50.752;4.352;2023-03-14T03:11:01;6.43;;;0.88;;
72439;SDS011;60446;50.752;4.352;2023-03-14T03:13:31;10.60;;;1.65;;
72439;SDS011;60446;50.752;4.352;2023-03-14T03:16:00;5.90;;;1.50;;
72439;SDS011;60446;50.752;4.352;2023-03-14T03:18:27;8.18;;;1.05;;
72439;SDS011;60446;50.752;4.352;2023-03-14T03:20:55;10.00;;;1.42;;
72439;SDS011;60446;50.752;4.352;2023-03-14T03:23:26;6.15;;;0.90;;
72439;SDS011;60446;50.752;4.352;2023-03-14T03:25:53;6.38;;;0.82;;
72439;SDS011;60446;50.752;4.352;2023-03-14T03:28:21;7.33;;;0.83;;
72439;SDS011;60446;50.752;4.352;2023-03-14T03:30:49;8.57;;;0.88;;
72439;SDS011;60446;50.752;4.352;2023-03-14T03:33:17;8.25;;;1.20;;
72439;SDS011;60446;50.752;4.352;2023-03-14T03:35:48;4.72;;;0.80;;
72439;SDS011;60446;50.752;4.352;2023-03-14T03:38:23;5.50;;;0.90;;
72439;SDS011;60446;50.752;4.352;2023-03-14T03:40:52;3.97;;;0.93;;
72439;SDS011;60446;50.752;4.352;2023-03-14T03:43:23;7.22;;;1.30;;
72439;SDS011;60446;50.752;4.352;2023-03-14T03:45:50;10.25;;;1.60;;
72439;SDS011;60446;50.752;4.352;2023-03-14T03:48:19;4.53;;;0.90;;
72439;SDS011;60446;50.752;4.352;2023-03-14T03:50:46;9.40;;;1.58;;
72439;SDS011;60446;50.752;4.352;2023-03-14T03:53:17;7.87;;;1.03;;
72439;SDS011;60446;50.752;4.352;2023-03-14T03:55:58;6.47;;;1.02;;
72439;SDS011;60446;50.752;4.352;2023-03-14T03:58:26;4.63;;;1.20;;
72439;SDS011;60446;50.752;4.352;2023-03-14T04:00:53;6.60;;;1.13;;
72439;SDS011;60446;50.752;4.352;2023-03-14T04:03:20;8.40;;;1.20;;
72439;SDS011;60446;50.752;4.352;2023-03-14T04:05:57;7.73;;;1.30;;
72439;SDS011;60446;50.752;4.352;2023-03-14T04:08:33;8.32;;;1.65;;
72439;SDS011;60446;50.752;4.352;2023-03-14T04:11:01;9.40;;;1.38;;
72439;SDS011;60446;50.752;4.352;2023-03-14T04:14:07;4.88;;;1.40;;
72439;SDS011;60446;50.752;4.352;2023-03-14T04:16:34;4.25;;;0.82;;
72439;SDS011;60446;50.752;4.352;2023-03-14T04:19:11;5.90;;;0.90;;
72439;SDS011;60446;50.752;4.352;2023-03-14T04:21:39;5.50;;;1.05;;
72439;SDS011;60446;50.752;4.352;2023-03-14T04:24:11;5.68;;;1.08;;
72439;SDS011;60446;50.752;4.352;2023-03-14T04:26:40;6.55;;;0.98;;
72439;SDS011;60446;50.752;4.352;2023-03-14T04:29:09;5.65;;;1.30;;
72439;SDS011;60446;50.752;4.352;2023-03-14T04:31:39;6.00;;;1.10;;
72439;SDS011;60446;50.752;4.352;2023-03-14T04:34:06;7.13;;;1.00;;
72439;SDS011;60446;50.752;4.352;2023-03-14T04:36:39;6.95;;;1.30;;
72439;SDS011;60446;50.752;4.352;2023-03-14T04:39:11;9.18;;;1.42;;
72439;SDS011;60446;50.752;4.352;2023-03-14T04:41:45;8.18;;;1.20;;
72439;SDS011;60446;50.752;4.352;2023-03-14T04:44:13;5.73;;;1.20;;
72439;SDS011;60446;50.752;4.352;2023-03-14T04:46:40;6.15;;;1.55;;
72439;SDS011;60446;50.752;4.352;2023-03-14T04:49:09;7.13;;;1.75;;
72439;SDS011;60446;50.752;4.352;2023-03-14T04:51:37;9.13;;;1.50;;
72439;SDS011;60446;50.752;4.352;2023-03-14T04:54:04;6.65;;;1.73;;
72439;SDS011;60446;50.752;4.352;2023-03-14T04:56:32;9.53;;;2.20;;
72439;SDS011;60446;50.752;4.352;2023-03-14T04:59:01;11.85;;;2.00;;
72439;SDS011;60446;50.752;4.352;2023-03-14T05:01:30;8.50;;;1.90;;
72439;SDS011;60446;50.752;4.352;2023-03-14T05:04:17;9.35;;;2.30;;
72439;SDS011;60446;50.752;4.352;2023-03-14T05:06:55;9.98;;;2.35;;
72439;SDS011;60446;50.752;4.352;2023-03-14T05:09:40;10.93;;;2.07;;
72439;SDS011;60446;50.752;4.352;2023-03-14T05:12:43;7.63;;;2.20;;
72439;SDS011;60446;50.752;4.352;2023-03-14T05:15:39;8.73;;;1.73;;
72439;SDS011;60446;50.752;4.352;2023-03-14T05:18:16;7.15;;;1.70;;
72439;SDS011;60446;50.752;4.352;2023-03-14T05:21:03;9.50;;;1.63;;
72439;SDS011;60446;50.752;4.352;2023-03-14T05:23:49;5.93;;;1.30;;
72439;SDS011;60446;50.752;4.352;2023-03-14T05:26:48;4.80;;;1.30;;
72439;SDS011;60446;50.752;4.352;2023-03-14T05:29:35;5.72;;;1.83;;
72439;SDS011;60446;50.752;4.352;2023-03-14T05:32:25;7.13;;;1.77;;
72439;SDS011;60446;50.752;4.352;2023-03-14T05:35:11;6.88;;;1.30;;
72439;SDS011;60446;50.752;4.352;2023-03-14T05:37:58;4.53;;;0.80;;
72439;SDS011;60446;50.752;4.352;2023-03-14T05:40:47;8.40;;;1.20;;
72439;SDS011;60446;50.752;4.352;2023-03-14T05:43:26;4.43;;;1.10;;
72439;SDS011;60446;50.752;4.352;2023-03-14T05:46:08;5.43;;;1.10;;
72439;SDS011;60446;50.752;4.352;2023-03-14T05:48:47;6.30;;;1.00;;
72439;SDS011;60446;50.752;4.352;2023-03-14T05:51:35;6.37;;;1.17;;
72439;SDS011;60446;50.752;4.352;2023-03-14T05:54:22;3.75;;;0.93;;
72439;SDS011;60446;50.752;4.352;2023-03-14T05:57:02;4.60;;;1.05;;
72439;SDS011;60446;50.752;4.352;2023-03-14T05:59:55;6.38;;;1.50;;
72439;SDS011;60446;50.752;4.352;2023-03-14T06:02:52;4.65;;;1.10;;
72439;SDS011;60446;50.752;4.352;2023-03-14T06:05:25;6.73;;;1.10;;
72439;SDS011;60446;50.752;4.352;2023-03-14T06:07:58;4.40;;;1.25;;
72439;SDS011;60446;50.752;4.352;2023-03-14T06:10:27;5.47;;;1.25;;
72439;SDS011;60446;50.752;4.352;2023-03-14T06:12:54;5.00;;;0.80;;
72439;SDS011;60446;50.752;4.352;2023-03-14T06:15:21;5.88;;;1.55;;
72439;SDS011;60446;50.752;4.352;2023-03-14T06:17:53;4.40;;;1.00;;
72439;SDS011;60446;50.752;4.352;2023-03-14T06:20:22;5.30;;;0.80;;
72439;SDS011;60446;50.752;4.352;2023-03-14T06:22:50;5.53;;;1.10;;
72439;SDS011;60446;50.752;4.352;2023-03-14T06:25:17;4.13;;;0.75;;
72439;SDS011;60446;50.752;4.352;2023-03-14T06:27:46;3.58;;;0.77;;
72439;SDS011;60446;50.752;4.352;2023-03-14T06:30:14;5.03;;;0.90;;
72439;SDS011;60446;50.752;4.352;2023-03-14T06:32:43;7.35;;;1.10;;
72439;SDS011;60446;50.752;4.352;2023-03-14T06:35:12;5.43;;;1.30;;
72439;SDS011;60446;50.752;4.352;2023-03-14T06:37:42;4.43;;;1.15;;
72439;SDS011;60446;50.752;4.352;2023-03-14T06:40:09;7.03;;;0.93;;
72439;SDS011;60446;50.752;4.352;2023-03-14T06:42:49;7.07;;;1.00;;
72439;SDS011;60446;50.752;4.352;2023-03-14T06:45:18;4.07;;;0.82;;
72439;SDS011;60446;50.752;4.352;2023-03-14T06:47:46;5.40;;;1.13;;
72439;SDS011;60446;50.752;4.352;2023-03-14T06:50:15;4.75;;;1.10;;
72439;SDS011;60446;50.752;4.352;2023-03-14T06:52:43;4.35;;;0.90;;
72439;SDS011;60446;50.752;4.352;2023-03-14T06:55:19;3.33;;;0.60;;
72439;SDS011;60446;50.752;4.352;2023-03-14T06:57:48;3.88;;;0.50;;
72439;SDS011;60446;50.752;4.352;2023-03-14T07:00:16;1.98;;;0.50;;
72439;SDS011;60446;50.752;4.352;2023-03-14T07:02:44;3.60;;;0.52;;
72439;SDS011;60446;50.752;4.352;2023-03-14T07:05:21;2.17;;;0.50;;
72439;SDS011;60446;50.752;4.352;2023-03-14T07:07:48;3.33;;;0.50;;
72439;SDS011;60446;50.752;4.352;2023-03-14T07:10:16;3.22;;;0.50;;
72439;SDS011;60446;50.752;4.352;2023-03-14T07:12:43;4.53;;;1.17;;
72439;SDS011;60446;50.752;4.352;2023-03-14T07:15:11;3.47;;;0.60;;
72439;SDS011;60446;50.752;4.352;2023-03-14T07:17:48;3.30;;;0.65;;
72439;SDS011;60446;50.752;4.352;2023-03-14T07:20:17;4.77;;;1.00;;
72439;SDS011;60446;50.752;4.352;2023-03-14T07:22:47;3.05;;;0.80;;
72439;SDS011;60446;50.752;4.352;2023-03-14T07:25:24;2.70;;;0.80;;
72439;SDS011;60446;50.752;4.352;2023-03-14T07:27:52;3.10;;;0.65;;
72439;SDS011;60446;50.752;4.352;2023-03-14T07:30:19;4.50;;;0.77;;
72439;SDS011;60446;50.752;4.352;2023-03-14T07:32:47;2.40;;;0.40;;
72439;SDS011;60446;50.752;4.352;2023-03-14T07:35:14;4.32;;;1.08;;
72439;SDS011;60446;50.752;4.352;2023-03-14T07:37:41;5.28;;;0.85;;
72439;SDS011;60446;50.752;4.352;2023-03-14T07:40:11;4.47;;;0.90;;
72439;SDS011;60446;50.752;4.352;2023-03-14T07:42:41;4.07;;;0.75;;
72439;SDS011;60446;50.752;4.352;2023-03-14T07:45:14;3.93;;;0.87;;
72439;SDS011;60446;50.752;4.352;2023-03-14T07:47:43;4.45;;;0.82;;
72439;SDS011;60446;50.752;4.352;2023-03-14T07:50:10;4.75;;;0.73;;
72439;SDS011;60446;50.752;4.352;2023-03-14T07:52:37;4.93;;;0.80;;
72439;SDS011;60446;50.752;4.352;2023-03-14T07:55:05;6.53;;;1.30;;
72439;SDS011;60446;50.752;4.352;2023-03-14T07:57:32;4.47;;;1.10;;
72439;SDS011;60446;50.752;4.352;2023-03-14T07:59:59;4.65;;;0.88;;
72439;SDS011;60446;50.752;4.352;2023-03-14T08:02:27;6.53;;;1.20;;
72439;SDS011;60446;50.752;4.352;2023-03-14T08:04:54;5.55;;;1.10;;
72439;SDS011;60446;50.752;4.352;2023-03-14T08:07:21;6.45;;;1.77;;
72439;SDS011;60446;50.752;4.352;2023-03-14T08:09:48;5.77;;;1.43;;
72439;SDS011;60446;50.752;4.352;2023-03-14T08:12:15;8.98;;;1.30;;
72439;SDS011;60446;50.752;4.352;2023-03-14T08:14:43;6.63;;;1.88;;
72439;SDS011;60446;50.752;4.352;2023-03-14T08:17:10;9.07;;;1.20;;
72439;SDS011;60446;50.752;4.352;2023-03-14T08:19:37;8.80;;;2.05;;
72439;SDS011;60446;50.752;4.352;2023-03-14T08:22:04;9.40;;;1.87;;
72439;SDS011;60446;50.752;4.352;2023-03-14T08:24:31;8.27;;;1.55;;
72439;SDS011;60446;50.752;4.352;2023-03-14T08:26:58;6.90;;;1.55;;
72439;SDS011;60446;50.752;4.352;2023-03-14T08:29:25;5.80;;;1.17;;
72439;SDS011;60446;50.752;4.352;2023-03-14T08:31:53;7.15;;;1.48;;
72439;SDS011;60446;50.752;4.352;2023-03-14T08:34:21;10.10;;;1.70;;
72439;SDS011;60446;50.752;4.352;2023-03-14T08:36:48;7.22;;;2.03;;
72439;SDS011;60446;50.752;4.352;2023-03-14T08:39:15;4.97;;;1.20;;
72439;SDS011;60446;50.752;4.352;2023-03-14T08:41:42;4.68;;;1.23;;
72439;SDS011;60446;50.752;4.352;2023-03-14T08:44:10;8.95;;;1.15;;
72439;SDS011;60446;50.752;4.352;2023-03-14T08:46:38;7.47;;;1.20;;
72439;SDS011;60446;50.752;4.352;2023-03-14T08:49:05;9.68;;;2.00;;
72439;SDS011;60446;50.752;4.352;2023-03-14T08:51:32;7.75;;;1.55;;
72439;SDS011;60446;50.752;4.352;2023-03-14T08:53:59;7.18;;;1.95;;
72439;SDS011;60446;50.752;4.352;2023-03-14T08:56:26;10.60;;;1.63;;
72439;SDS011;60446;50.752;4.352;2023-03-14T08:58:53;10.73;;;1.50;;
72439;SDS011;60446;50.752;4.352;2023-03-14T09:01:20;5.68;;;1.55;;
72439;SDS011;60446;50.752;4.352;2023-03-14T09:03:50;8.40;;;1.35;;
72439;SDS011;60446;50.752;4.352;2023-03-14T09:06:22;4.63;;;1.48;;
72439;SDS011;60446;50.752;4.352;2023-03-14T09:08:49;5.68;;;0.95;;
72439;SDS011;60446;50.752;4.352;2023-03-14T09:11:21;4.23;;;0.90;;
72439;SDS011;60446;50.752;4.352;2023-03-14T09:13:53;6.38;;;1.23;;
72439;SDS011;60446;50.752;4.352;2023-03-14T09:16:22;6.35;;;1.40;;
72439;SDS011;60446;50.752;4.352;2023-03-14T09:18:50;7.28;;;0.82;;
72439;SDS011;60446;50.752;4.352;2023-03-14T09:21:21;6.78;;;1.40;;
72439;SDS011;60446;50.752;4.352;2023-03-14T09:23:50;5.37;;;0.80;;
72439;SDS011;60446;50.752;4.352;2023-03-14T09:26:24;4.95;;;1.10;;
72439;SDS011;60446;50.752;4.352;2023-03-14T09:29:07;5.63;;;1.10;;
72439;SDS011;60446;50.752;4.352;2023-03-14T09:31:38;7.18;;;1.17;;
72439;SDS011;60446;50.752;4.352;2023-03-14T09:34:18;3.15;;;0.85;;
72439;SDS011;60446;50.752;4.352;2023-03-14T09:36:54;8.47;;;1.10;;
72439;SDS011;60446;50.752;4.352;2023-03-14T09:39:29;9.27;;;0.75;;
72439;SDS011;60446;50.752;4.352;2023-03-14T09:41:56;8.82;;;1.25;;
72439;SDS011;60446;50.752;4.352;2023-03-14T09:44:33;3.97;;;0.60;;
72439;SDS011;60446;50.752;4.352;2023-03-14T09:47:11;5.38;;;0.90;;
72439;SDS011;60446;50.752;4.352;2023-03-14T09:49:46;4.20;;;0.70;;
72439;SDS011;60446;50.752;4.352;2023-03-14T09:52:24;10.18;;;1.30;;
72439;SDS011;60446;50.752;4.352;2023-03-14T09:55:03;5.18;;;0.95;;
72439;SDS011;60446;50.752;4.352;2023-03-14T09:57:42;5.65;;;1.00;;
72439;SDS011;60446;50.752;4.352;2023-03-14T10:03:34;5.17;;;0.67;;
72439;SDS011;60446;50.752;4.352;2023-03-14T10:06:08;4.90;;;0.77;;
72439;SDS011;60446;50.752;4.352;2023-03-14T10:08:41;6.38;;;1.02;;
72439;SDS011;60446;50.752;4.352;2023-03-14T10:11:14;6.28;;;0.80;;
72439;SDS011;60446;50.752;4.352;2023-03-14T10:16:36;5.07;;;1.20;;
72439;SDS011;60446;50.752;4.352;2023-03-14T10:19:14;6.07;;;1.10;;
72439;SDS011;60446;50.752;4.352;2023-03-14T10:21:44;8.43;;;1.45;;
72439;SDS011;60446;50.752;4.352;2023-03-14T10:26:53;8.05;;;0.93;;
72439;SDS011;60446;50.752;4.352;2023-03-14T10:29:35;5.97;;;0.60;;
72439;SDS011;60446;50.752;4.352;2023-03-14T10:32:34;8.15;;;0.95;;
72439;SDS011;60446;50.752;4.352;2023-03-14T10:37:50;6.20;;;0.70;;
72439;SDS011;60446;50.752;4.352;2023-03-14T10:40:28;4.20;;;0.70;;
72439;SDS011;60446;50.752;4.352;2023-03-14T10:43:05;5.23;;;0.77;;
72439;SDS011;60446;50.752;4.352;2023-03-14T10:45:43;3.55;;;0.60;;
72439;SDS011;60446;50.752;4.352;2023-03-14T10:48:22;4.70;;;1.15;;
72439;SDS011;60446;50.752;4.352;2023-03-14T10:56:47;6.13;;;1.00;;
72439;SDS011;60446;50.752;4.352;2023-03-14T10:59:25;6.53;;;1.38;;
72439;SDS011;60446;50.752;4.352;2023-03-14T11:07:47;6.60;;;1.52;;
72439;SDS011;60446;50.752;4.352;2023-03-14T11:10:18;7.97;;;1.90;;
72439;SDS011;60446;50.752;4.352;2023-03-14T11:30:14;8.50;;;1.80;;
72439;SDS011;60446;50.752;4.352;2023-03-14T11:33:16;5.53;;;1.38;;
72439;SDS011;60446;50.752;4.352;2023-03-14T11:36:03;7.53;;;1.35;;
72439;SDS011;60446;50.752;4.352;2023-03-14T11:38:38;5.03;;;1.00;;
72439;SDS011;60446;50.752;4.352;2023-03-14T11:41:17;8.77;;;1.13;;
72439;SDS011;60446;50.752;4.352;2023-03-14T11:43:54;5.57;;;1.23;;
72439;SDS011;60446;50.752;4.352;2023-03-14T11:46:38;4.00;;;0.90;;
72439;SDS011;60446;50.752;4.352;2023-03-14T11:49:43;5.25;;;1.00;;
72439;SDS011;60446;50.752;4.352;2023-03-14T11:52:21;2.33;;;0.40;;
72439;SDS011;60446;50.752;4.352;2023-03-14T11:55:17;4.72;;;0.75;;
72439;SDS011;60446;50.752;4.352;2023-03-14T11:57:53;2.85;;;0.70;;
72439;SDS011;60446;50.752;4.352;2023-03-14T12:00:28;3.75;;;0.50;;
72439;SDS011;60446;50.752;4.352;2023-03-14T12:03:02;2.47;;;0.63;;
72439;SDS011;60446;50.752;4.352;2023-03-14T12:06:09;2.30;;;0.40;;
72439;SDS011;60446;50.752;4.352;2023-03-14T12:14:00;1.77;;;0.38;;
72439;SDS011;60446;50.752;4.352;2023-03-14T12:16:38;2.40;;;0.63;;
72439;SDS011;60446;50.752;4.352;2023-03-14T12:19:40;3.47;;;0.40;;
72439;SDS011;60446;50.752;4.352;2023-03-14T12:24:39;2.90;;;0.80;;
72439;SDS011;60446;50.752;4.352;2023-03-14T12:30:36;5.95;;;0.60;;
72439;SDS011;60446;50.752;4.352;2023-03-14T12:35:50;2.95;;;0.63;;
72439;SDS011;60446;50.752;4.352;2023-03-14T12:43:54;3.80;;;1.10;;
72439;SDS011;60446;50.752;4.352;2023-03-14T12:46:23;3.83;;;0.90;;
72439;SDS011;60446;50.752;4.352;2023-03-14T12:54:09;5.45;;;1.05;;
72439;SDS011;60446;50.752;4.352;2023-03-14T12:57:23;4.18;;;0.93;;
72439;SDS011;60446;50.752;4.352;2023-03-14T13:02:47;4.30;;;0.93;;
72439;SDS011;60446;50.752;4.352;2023-03-14T13:05:20;6.07;;;1.08;;
72439;SDS011;60446;50.752;4.352;2023-03-14T13:12:55;3.53;;;0.77;;
72439;SDS011;60446;50.752;4.352;2023-03-14T13:15:29;4.18;;;0.70;;
72439;SDS011;60446;50.752;4.352;2023-03-14T13:18:13;5.47;;;1.00;;
72439;SDS011;60446;50.752;4.352;2023-03-14T13:20:48;4.53;;;0.70;;
72439;SDS011;60446;50.752;4.352;2023-03-14T13:23:27;5.10;;;1.00;;
72439;SDS011;60446;50.752;4.352;2023-03-14T13:25:57;5.07;;;0.63;;
72439;SDS011;60446;50.752;4.352;2023-03-14T13:28:26;3.72;;;0.70;;
72439;SDS011;60446;50.752;4.352;2023-03-14T13:31:00;4.38;;;0.90;;
72439;SDS011;60446;50.752;4.352;2023-03-14T13:33:29;4.30;;;1.00;;
72439;SDS011;60446;50.752;4.352;2023-03-14T13:35:59;5.68;;;0.68;;
72439;SDS011;60446;50.752;4.352;2023-03-14T13:38:31;4.30;;;0.77;;
72439;SDS011;60446;50.752;4.352;2023-03-14T13:41:05;5.18;;;0.80;;
72439;SDS011;60446;50.752;4.352;2023-03-14T13:43:40;5.22;;;1.00;;
72439;SDS011;60446;50.752;4.352;2023-03-14T13:46:16;6.28;;;0.90;;
72439;SDS011;60446;50.752;4.352;2023-03-14T13:48:55;7.07;;;1.00;;
72439;SDS011;60446;50.752;4.352;2023-03-14T13:51:25;5.67;;;0.80;;
72439;SDS011;60446;50.752;4.352;2023-03-14T13:53:57;8.77;;;0.77;;
72439;SDS011;60446;50.752;4.352;2023-03-14T13:56:27;9.10;;;1.00;;
72439;SDS011;60446;50.752;4.352;2023-03-14T13:58:57;6.20;;;0.55;;
72439;SDS011;60446;50.752;4.352;2023-03-14T14:01:28;4.95;;;0.73;;
72439;SDS011;60446;50.752;4.352;2023-03-14T14:04:07;3.40;;;0.70;;
72439;SDS011;60446;50.752;4.352;2023-03-14T14:06:44;4.38;;;1.08;;
72439;SDS011;60446;50.752;4.352;2023-03-14T14:09:24;6.68;;;0.85;;
72439;SDS011;60446;50.752;4.352;2023-03-14T14:14:56;6.57;;;1.08;;
72439;SDS011;60446;50.752;4.352;2023-03-14T14:17:37;3.80;;;0.60;;
72439;SDS011;60446;50.752;4.352;2023-03-14T14:20:21;4.80;;;1.10;;
72439;SDS011;60446;50.752;4.352;2023-03-14T14:22:49;5.13;;;0.95;;
72439;SDS011;60446;50.752;4.352;2023-03-14T14:25:17;5.78;;;0.90;;
72439;SDS011;60446;50.752;4.352;2023-03-14T14:27:47;9.27;;;1.00;;
72439;SDS011;60446;50.752;4.352;2023-03-14T14:32:44;5.28;;;0.93;;
72439;SDS011;60446;50.752;4.352;2023-03-14T14:35:30;4.57;;;0.70;;
72439;SDS011;60446;50.752;4.352;2023-03-14T14:37:59;9.50;;;1.00;;
72439;SDS011;60446;50.752;4.352;2023-03-14T14:40:28;7.63;;;0.85;;
72439;SDS011;60446;50.752;4.352;2023-03-14T14:43:04;7.63;;;0.90;;
72439;SDS011;60446;50.752;4.352;2023-03-14T14:45:32;6.75;;;0.70;;
72439;SDS011;60446;50.752;4.352;2023-03-14T14:50:29;6.82;;;1.10;;
72439;SDS011;60446;50.752;4.352;2023-03-14T14:53:00;5.32;;;0.93;;
72439;SDS011;60446;50.752;4.352;2023-03-14T14:55:34;6.60;;;0.70;;
72439;SDS011;60446;50.752;4.352;2023-03-14T15:01:13;5.05;;;0.55;;
72439;SDS011;60446;50.752;4.352;2023-03-14T15:03:50;4.07;;;0.40;;
72439;SDS011;60446;50.752;4.352;2023-03-14T15:06:19;3.13;;;0.40;;
72439;SDS011;60446;50.752;4.352;2023-03-14T15:08:47;3.37;;;0.30;;
72439;SDS011;60446;50.752;4.352;2023-03-14T15:13:49;1.27;;;0.30;;
72439;SDS011;60446;50.752;4.352;2023-03-14T15:16:18;1.23;;;0.20;;
72439;SDS011;60446;50.752;4.352;2023-03-14T15:18:55;1.20;;;0.20;;
72439;SDS011;60446;50.752;4.352;2023-03-14T15:21:26;1.60;;;0.20;;
72439;SDS011;60446;50.752;4.352;2023-03-14T15:23:54;1.85;;;0.43;;
72439;SDS011;60446;50.752;4.352;2023-03-14T15:26:23;3.17;;;0.40;;
72439;SDS011;60446;50.752;4.352;2023-03-14T15:28:53;3.97;;;0.45;;
72439;SDS011;60446;50.752;4.352;2023-03-14T15:31:20;1.55;;;0.40;;
72439;SDS011;60446;50.752;4.352;2023-03-14T15:33:48;2.87;;;0.40;;
72439;SDS011;60446;50.752;4.352;2023-03-14T15:36:19;3.08;;;0.50;;
72439;SDS011;60446;50.752;4.352;2023-03-14T15:38:54;1.08;;;0.35;;
72439;SDS011;60446;50.752;4.352;2023-03-14T15:41:22;2.88;;;0.40;;
72439;SDS011;60446;50.752;4.352;2023-03-14T15:43:50;2.10;;;0.30;;
72439;SDS011;60446;50.752;4.352;2023-03-14T15:46:20;3.00;;;0.30;;
72439;SDS011;60446;50.752;4.352;2023-03-14T15:48:48;4.15;;;0.50;;
72439;SDS011;60446;50.752;4.352;2023-03-14T15:51:17;3.00;;;0.68;;
72439;SDS011;60446;50.752;4.352;2023-03-14T15:53:45;4.90;;;0.73;;
72439;SDS011;60446;50.752;4.352;2023-03-14T15:56:26;2.17;;;0.40;;
72439;SDS011;60446;50.752;4.352;2023-03-14T15:58:58;6.37;;;0.80;;
72439;SDS011;60446;50.752;4.352;2023-03-14T16:01:37;2.53;;;0.20;;
72439;SDS011;60446;50.752;4.352;2023-03-14T16:04:07;1.98;;;0.60;;
72439;SDS011;60446;50.752;4.352;2023-03-14T16:06:34;1.88;;;0.50;;
72439;SDS011;60446;50.752;4.352;2023-03-14T16:09:02;4.22;;;0.65;;
72439;SDS011;60446;50.752;4.352;2023-03-14T16:11:30;3.00;;;0.70;;
72439;SDS011;60446;50.752;4.352;2023-03-14T16:13:57;4.07;;;0.50;;
72439;SDS011;60446;50.752;4.352;2023-03-14T16:16:24;2.97;;;0.47;;
72439;SDS011;60446;50.752;4.352;2023-03-14T16:18:52;3.60;;;0.77;;
72439;SDS011;60446;50.752;4.352;2023-03-14T16:21:28;5.13;;;0.88;;
72439;SDS011;60446;50.752;4.352;2023-03-14T16:23:59;3.57;;;0.73;;
72439;SDS011;60446;50.752;4.352;2023-03-14T16:26:40;5.90;;;1.08;;
72439;SDS011;60446;50.752;4.352;2023-03-14T16:29:29;6.43;;;0.90;;
72439;SDS011;60446;50.752;4.352;2023-03-14T16:32:06;4.35;;;1.00;;
72439;SDS011;60446;50.752;4.352;2023-03-14T16:34:37;5.15;;;1.40;;
72439;SDS011;60446;50.752;4.352;2023-03-14T16:37:05;2.97;;;0.60;;
72439;SDS011;60446;50.752;4.352;2023-03-14T16:39:33;6.55;;;1.30;;
72439;SDS011;60446;50.752;4.352;2023-03-14T16:42:16;4.43;;;0.90;;
72439;SDS011;60446;50.752;4.352;2023-03-14T16:44:44;5.53;;;1.17;;
72439;SDS011;60446;50.752;4.352;2023-03-14T16:47:19;5.25;;;0.80;;
72439;SDS011;60446;50.752;4.352;2023-03-14T16:49:48;5.57;;;1.17;;
72439;SDS011;60446;50.752;4.352;2023-03-14T16:52:15;5.18;;;0.80;;
72439;SDS011;60446;50.752;4.352;2023-03-14T16:54:49;5.53;;;1.42;;
72439;SDS011;60446;50.752;4.352;2023-03-14T16:57:16;6.05;;;1.52;;
72439;SDS011;60446;50.752;4.352;2023-03-14T16:59:46;5.38;;;1.30;;